createdAt,value
2018-02-03T18:49:35.291Z,1.40
2018-02-03T18:52:04.404Z,1.50
2018-02-03T18:54:32.728Z,1.40
2018-02-03T18:57:01.062Z,1.50
2018-02-03T18:59:29.395Z,1.50
2018-02-03T19:01:58.529Z,1.50
2018-02-03T19:04:27.596Z,1.50
2018-02-03T19:06:56.883Z,1.50
2018-02-03T19:09:25.191Z,1.60
2018-02-03T19:11:54.307Z,1.70
2018-02-03T19:14:22.609Z,1.60
2018-02-03T19:16:51.029Z,1.70
2018-02-03T19:19:19.348Z,1.70
2018-02-03T19:21:47.676Z,1.70
2018-02-03T19:24:16.016Z,1.80
2018-02-03T19:26:44.318Z,1.80
2018-02-03T19:29:17.633Z,1.90
2018-02-03T19:31:46.719Z,2.00
2018-02-03T19:34:15.031Z,1.90
2018-02-03T19:36:43.363Z,2.00
2018-02-03T19:39:11.669Z,2.00
2018-02-03T19:41:40.779Z,1.90
2018-02-03T19:44:09.091Z,1.90
2018-02-03T19:46:37.529Z,1.90
2018-02-03T19:49:06.715Z,1.80
2018-02-03T19:51:35.043Z,1.70
2018-02-03T19:54:03.467Z,1.80
2018-02-03T19:56:31.813Z,1.80
2018-02-03T19:59:00.144Z,1.80
2018-02-03T20:01:28.484Z,1.80
2018-02-03T20:03:56.827Z,1.80
2018-02-03T20:06:25.270Z,1.70
2018-02-03T20:08:53.611Z,1.70
2018-02-03T20:11:21.914Z,1.70
2018-02-03T20:13:51.019Z,1.70
2018-02-03T20:16:19.376Z,1.70
2018-02-03T20:18:48.472Z,1.60
2018-02-03T20:21:17.631Z,1.70
2018-02-03T20:23:45.952Z,1.60
2018-02-03T20:26:15.201Z,1.60
2018-02-03T20:28:43.516Z,1.60
2018-02-03T20:31:12.608Z,1.60
2018-02-03T20:33:41.009Z,1.60
2018-02-03T20:36:09.328Z,1.60
2018-02-03T20:38:38.487Z,1.50
2018-02-03T20:41:06.922Z,1.40
2018-02-03T20:43:35.242Z,1.50
2018-02-03T20:46:03.687Z,1.60
2018-02-03T20:48:32.095Z,1.70
2018-02-03T20:51:00.673Z,1.70
2018-02-03T20:53:29.806Z,1.70
2018-02-03T20:55:58.965Z,1.80
2018-02-03T20:58:28.070Z,1.80
2018-02-03T21:00:56.398Z,1.70
2018-02-03T21:03:24.759Z,1.70
2018-02-03T21:05:53.091Z,1.70
2018-02-03T21:08:21.445Z,1.60
2018-02-03T21:10:50.047Z,1.60
2018-02-03T21:13:19.132Z,1.70
2018-02-03T21:15:48.203Z,1.60
2018-02-03T21:18:16.529Z,1.60
2018-02-03T21:20:44.879Z,1.60
2018-02-03T21:23:13.206Z,1.60
2018-02-03T21:25:41.556Z,1.60
2018-02-03T21:28:10.627Z,1.80
2018-02-03T21:30:39.735Z,1.80
2018-02-03T21:33:08.135Z,1.70
2018-02-03T21:35:36.481Z,1.70
2018-02-03T21:38:04.990Z,1.70
2018-02-03T21:40:33.344Z,1.80
2018-02-03T21:43:02.431Z,1.90
2018-02-03T21:45:31.951Z,2.00
2018-02-03T21:48:00.287Z,1.90
2018-02-03T21:50:28.613Z,2.00
2018-02-03T21:52:56.943Z,2.00
2018-02-03T21:55:25.263Z,2.10
2018-02-03T21:57:54.370Z,2.20
2018-02-03T22:00:22.692Z,2.10
2018-02-03T22:02:51.003Z,2.10
2018-02-03T22:05:20.095Z,2.00
2018-02-03T22:07:49.176Z,2.00
2018-02-03T22:10:17.511Z,2.00
2018-02-03T22:12:45.851Z,2.10
2018-02-03T22:15:14.199Z,2.10
2018-02-03T22:17:43.331Z,2.10
2018-02-03T22:20:11.642Z,2.00
2018-02-03T22:22:39.977Z,2.00
2018-02-03T22:25:09.094Z,2.00
2018-02-03T22:27:37.403Z,2.00
2018-02-03T22:30:05.728Z,2.00
2018-02-03T22:32:34.103Z,2.00
2018-02-03T22:35:02.428Z,2.00
2018-02-03T22:37:30.752Z,1.90
2018-02-03T22:39:59.842Z,1.90
2018-02-03T22:42:28.955Z,1.90
2018-02-03T22:44:57.287Z,1.80
2018-02-03T22:47:25.604Z,1.80
2018-02-03T22:49:53.946Z,1.80
2018-02-03T22:52:22.260Z,1.80
2018-02-03T22:54:50.603Z,1.80
2018-02-03T22:57:18.916Z,1.80
2018-02-03T22:59:47.258Z,1.80
2018-02-03T23:02:21.185Z,1.80
2018-02-03T23:04:49.523Z,1.80
2018-02-03T23:07:17.827Z,1.80
2018-02-03T23:09:46.158Z,1.90
2018-02-03T23:12:14.491Z,1.80
2018-02-03T23:14:43.571Z,1.50
2018-02-03T23:17:11.911Z,1.50
2018-02-03T23:19:40.228Z,1.40
2018-02-03T23:22:08.571Z,1.40
2018-02-03T23:24:36.914Z,1.30
2018-02-03T23:27:05.979Z,1.30
2018-02-03T23:29:34.299Z,1.30
2018-02-03T23:32:02.615Z,1.30
2018-02-03T23:34:30.951Z,1.40
2018-02-03T23:36:59.275Z,1.40
2018-02-03T23:39:27.627Z,1.40
2018-02-03T23:41:55.979Z,1.50
2018-02-03T23:44:24.292Z,1.50
2018-02-03T23:46:52.635Z,1.50
2018-02-03T23:49:21.192Z,1.50
2018-02-03T23:51:50.295Z,1.60
2018-02-03T23:54:19.404Z,1.70
2018-02-03T23:56:47.707Z,1.70
2018-02-03T23:59:16.031Z,1.70
